Time;durP1;ratioP1;P1;durP2;ratioP2;P2;SDS_P1;SDS_P2;PMS_P1;PMS_P2;Temp;Humidity;BMP_temperature;BMP_pressure;BME280_temperature;BME280_humidity;BME280_pressure;Samples;Min_cycle;Max_cycle;Signal;HPM_P1;HPM_P2
2021/05/23 00:00:34;;;;;;;2.35;0.80;;;8.10;99.90;;;7.34;89.31;97144.94;5070066;28;20468;-71
2021/05/23 00:03:07;;;;;;;4.03;1.00;;;8.10;99.90;;;7.36;88.96;97143.13;5079939;28;20044;-71
2021/05/23 00:05:38;;;;;;;;;;;8.10;99.90;;;7.29;89.33;97141.69;5072932;28;20036;-71
2021/05/23 00:08:15;;;;;;;3.83;1.02;;;8.10;99.90;;;7.20;89.55;97153.19;5073176;28;19990;-71
2021/05/23 00:10:49;;;;;;;3.28;0.70;;;8.00;99.90;;;7.27;88.83;97149.47;5058251;28;20501;-71
2021/05/23 00:13:21;;;;;;;2.85;1.50;;;8.00;99.90;;;7.24;89.21;97141.84;5073626;28;20511;-71
2021/05/23 00:15:59;;;;;;;7.20;0.85;;;8.00;99.90;;;7.30;88.48;97143.38;5076680;28;20048;-71
2021/05/23 00:18:30;;;;;;;3.63;1.08;;;8.00;99.90;;;7.24;88.90;97148.75;5071400;28;20111;-71
2021/05/23 00:20:58;;;;;;;8.77;1.38;;;7.90;99.90;;;7.02;89.69;97149.50;5068741;28;20044;-71
2021/05/23 00:23:26;;;;;;;6.30;1.20;;;7.90;99.90;;;7.17;88.76;97135.22;5078933;28;20041;-71
2021/05/23 00:25:53;;;;;;;4.40;0.98;;;7.80;99.90;;;7.10;89.12;97147.50;5074617;28;20040;-71
2021/05/23 00:28:21;;;;;;;5.22;1.00;;;7.80;99.90;;;7.04;89.62;97142.56;5073289;28;20036;-71
2021/05/23 00:30:48;;;;;;;3.13;0.93;;;7.80;99.90;;;7.11;89.36;97138.84;5078211;28;20051;-71
2021/05/23 00:33:16;;;;;;;5.55;0.82;;;7.80;99.90;;;7.03;89.29;97140.88;5070271;28;20044;-71
2021/05/23 00:35:43;;;;;;;5.00;0.90;;;7.80;99.90;;;7.12;88.75;97129.41;5074371;28;20048;-71
2021/05/23 00:38:11;;;;;;;3.97;0.70;;;7.80;99.90;;;7.19;88.53;97137.75;5080434;28;20104;-71
2021/05/23 00:40:39;;;;;;;3.20;0.77;;;7.80;99.90;;;7.17;88.35;97145.56;5072997;28;20091;-71
2021/05/23 00:43:10;;;;;;;4.40;0.73;;;7.90;99.90;;;7.20;88.18;97139.44;5071274;28;20036;-71
2021/05/23 00:45:38;;;;;;;3.25;0.65;;;7.90;99.90;;;7.29;87.47;97146.84;5071017;28;20131;-72
2021/05/23 00:48:06;;;;;;;4.38;0.80;;;7.90;99.90;;;7.20;88.43;97137.69;5069948;28;20101;-71
2021/05/23 00:50:34;;;;;;;4.05;0.85;;;7.90;99.90;;;7.26;87.96;97142.63;5071427;28;20048;-71
2021/05/23 00:53:04;;;;;;;3.92;1.05;;;7.90;99.90;;;7.28;87.98;97140.84;5068697;28;20052;-71
2021/05/23 00:55:32;;;;;;;2.78;0.90;;;7.90;99.90;;;7.20;88.09;97139.44;5069925;28;20068;-71
2021/05/23 00:57:59;;;;;;;4.18;0.80;;;7.90;99.90;;;7.07;88.81;97142.47;5070693;28;20056;-72
2021/05/23 01:00:33;;;;;;;1.95;0.65;;;7.80;99.90;;;7.10;88.59;97150.09;5069706;28;20041;-71
2021/05/23 01:03:01;;;;;;;3.08;0.88;;;7.80;99.90;;;7.05;88.83;97146.00;5070298;28;20037;-71
2021/05/23 01:05:29;;;;;;;2.92;0.77;;;7.70;99.90;;;6.81;90.20;97150.25;5073180;28;20045;-71
2021/05/23 01:07:56;;;;;;;3.83;0.80;;;7.70;99.90;;;6.78;90.30;97151.22;5073173;28;20131;-71
2021/05/23 01:10:27;;;;;;;2.03;0.73;;;7.70;99.90;;;6.81;89.91;97153.69;5069481;28;20136;-71
2021/05/23 01:13:02;;;;;;;3.20;0.70;;;7.60;99.90;;;6.77;89.72;97159.84;5068615;28;20044;-70
2021/05/23 01:15:30;;;;;;;3.95;0.70;;;7.60;99.90;;;6.89;89.08;97164.59;5069124;28;20127;-71
2021/05/23 01:18:02;;;;;;;2.05;0.90;;;7.50;99.90;;;6.76;89.66;97159.91;5070362;28;20048;-71
2021/05/23 01:20:49;;;;;;;3.30;0.95;;;7.40;99.90;;;6.74;89.61;97159.13;5080981;28;20143;-71
2021/05/23 01:23:20;;;;;;;2.30;0.57;;;7.40;99.90;;;6.62;89.82;97166.38;5072552;28;20036;-71
2021/05/23 01:25:50;;;;;;;2.15;0.60;;;7.40;99.90;;;6.64;89.54;97166.31;5072970;28;20117;-71
2021/05/23 01:28:19;;;;;;;3.97;0.77;;;7.30;99.90;;;6.60;89.87;97173.31;5069737;28;20045;-71
2021/05/23 01:30:50;;;;;;;3.42;0.82;;;7.20;99.90;;;6.70;89.10;97172.13;5076794;28;20416;-71
2021/05/23 01:33:20;;;;;;;3.38;0.68;;;7.30;99.90;;;6.52;89.50;97164.13;5072980;28;20177;-72
2021/05/23 01:35:55;;;;;;;4.35;0.80;;;7.20;99.90;;;6.64;89.51;97166.31;5070625;28;20048;-71
2021/05/23 01:38:24;;;;;;;4.07;0.70;;;7.20;99.90;;;6.67;89.50;97171.38;5078605;28;20040;-71
2021/05/23 01:40:56;;;;;;;4.80;0.80;;;7.20;99.90;;;6.64;89.54;97176.66;5070966;28;20051;-71
2021/05/23 01:43:25;;;;;;;2.92;0.98;;;7.20;99.90;;;6.52;89.97;97177.84;5069330;28;20048;-71
2021/05/23 01:45:52;;;;;;;4.68;0.70;;;7.10;99.90;;;6.51;90.12;97181.34;5079593;28;20105;-71
2021/05/23 01:48:19;;;;;;;3.05;0.60;;;7.10;99.90;;;6.36;90.88;97174.94;5081640;28;20489;-71
2021/05/23 01:50:46;;;;;;;3.30;0.70;;;7.10;99.90;;;6.40;90.90;97189.41;5078872;28;20056;-71
2021/05/23 01:53:13;;;;;;;2.15;0.70;;;7.10;99.90;;;6.34;91.25;97191.34;5082335;28;20131;-71
2021/05/23 01:55:41;;;;;;;3.13;0.75;;;7.00;99.90;;;6.30;90.72;97187.22;5080045;28;20044;-71
2021/05/23 01:58:09;;;;;;;5.32;0.80;;;7.00;99.90;;;6.36;90.91;97192.97;5087747;28;20414;-71
2021/05/23 02:00:49;;;;;;;4.93;0.80;;;7.00;99.90;;;6.26;90.84;97186.44;5074506;28;20178;-71
2021/05/23 02:03:20;;;;;;;2.50;0.80;;;7.00;99.90;;;6.32;90.97;97193.13;5068484;28;20110;-71
2021/05/23 02:05:51;;;;;;;3.08;0.70;;;7.10;99.90;;;6.42;90.35;97199.69;5084859;28;20109;-71
2021/05/23 02:08:21;;;;;;;6.57;0.70;;;7.20;99.90;;;6.41;90.79;97203.16;5086739;28;20139;-71
2021/05/23 02:10:51;;;;;;;1.65;0.50;;;7.20;99.90;;;6.49;90.50;97207.16;5077492;28;20558;-71
2021/05/23 02:13:19;;;;;;;2.63;0.60;;;7.30;99.90;;;6.52;90.22;97206.22;5089444;28;20504;-71
2021/05/23 02:15:47;;;;;;;3.60;0.98;;;7.30;99.90;;;6.52;90.19;97205.38;5073606;28;20045;-71
2021/05/23 02:18:14;;;;;;;5.68;0.82;;;7.30;99.90;;;6.53;90.37;97213.09;5073206;28;20040;-71
2021/05/23 02:20:42;;;;;;;6.82;0.70;;;7.30;99.90;;;6.38;90.79;97219.56;5082771;28;20149;-71
2021/05/23 02:23:28;;;;;;;2.55;0.85;;;7.30;99.90;;;6.46;90.64;97199.53;5071450;28;20047;-71
2021/05/23 02:25:56;;;;;;;1.83;0.60;;;7.30;99.90;;;6.48;90.28;97212.41;5073572;28;20472;-71
2021/05/23 02:28:23;;;;;;;2.53;0.65;;;7.20;99.90;;;6.43;89.90;97206.53;5085056;28;20036;-71
2021/05/23 02:30:55;;;;;;;3.22;0.73;;;7.10;99.90;;;6.41;90.04;97208.31;5063591;28;20048;-71
2021/05/23 02:33:24;;;;;;;2.70;0.63;;;7.10;99.90;;;6.38;90.02;97211.81;5072113;28;20048;-71
2021/05/23 02:35:56;;;;;;;2.95;0.80;;;7.00;99.90;;;6.27;90.90;97203.59;5054431;28;20153;-71
2021/05/23 02:38:25;;;;;;;4.35;0.80;;;7.00;99.90;;;6.24;91.04;97207.09;5081789;28;20037;-71
2021/05/23 02:40:53;;;;;;;5.28;0.60;;;7.00;99.90;;;6.23;91.20;97217.47;5082002;28;20037;-71
2021/05/23 02:43:21;;;;;;;6.70;0.80;;;6.90;99.90;;;6.22;91.14;97219.19;5088007;28;20105;-71
2021/05/23 02:45:49;;;;;;;4.57;0.80;;;6.90;99.90;;;6.18;91.22;97221.91;5078508;28;20059;-71
2021/05/23 02:48:17;;;;;;;4.82;0.70;;;6.90;99.90;;;6.21;91.04;97232.16;5088732;28;20032;-71
2021/05/23 02:50:48;;;;;;;4.05;0.90;;;6.90;99.90;;;6.24;90.86;97232.03;5080388;28;20113;-71
2021/05/23 02:53:15;;;;;;;3.20;0.68;;;6.90;99.90;;;6.17;91.32;97236.53;5071539;28;20044;-71
2021/05/23 02:55:46;;;;;;;3.15;0.60;;;6.90;99.90;;;6.15;91.29;97240.88;5079288;28;20037;-71
2021/05/23 02:58:15;;;;;;;3.10;0.70;;;6.90;99.90;;;6.26;90.90;97245.72;5079543;28;20048;-71
2021/05/23 03:00:44;;;;;;;3.67;0.70;;;7.00;99.90;;;6.10;91.68;97252.25;5084297;28;20037;-71
2021/05/23 03:03:12;;;;;;;4.60;0.80;;;7.00;99.90;;;6.13;91.34;97241.84;5086314;28;20052;-71
2021/05/23 03:05:41;;;;;;;2.83;0.70;;;6.90;99.90;;;6.13;92.03;97241.84;5090848;28;20510;-71
2021/05/23 03:08:10;;;;;;;8.13;0.80;;;7.00;99.90;;;6.19;91.48;97263.09;5071206;28;20048;-71
2021/05/23 03:10:51;;;;;;;4.07;1.00;;;6.90;99.90;;;6.19;91.56;97255.38;5072014;28;20385;-71
2021/05/23 03:13:19;;;;;;;2.85;0.80;;;6.90;99.90;;;6.24;91.48;97258.66;5076469;28;20044;-71
2021/05/23 03:15:47;;;;;;;1.73;0.60;;;6.90;99.90;;;6.19;91.55;97267.44;5082570;28;20044;-71
2021/05/23 03:18:14;;;;;;;2.28;0.68;;;6.90;99.90;;;6.28;91.40;97272.31;5081396;28;20193;-71
2021/05/23 03:20:42;;;;;;;4.65;0.90;;;7.00;99.90;;;6.21;91.91;97270.81;5082130;28;20036;-71
2021/05/23 03:23:10;;;;;;;3.75;0.95;;;7.00;99.90;;;6.17;92.02;97277.78;5076344;28;20047;-71
2021/05/23 03:25:38;;;;;;;3.38;0.80;;;7.00;99.90;;;6.27;91.81;97271.47;5069918;28;20045;-71
2021/05/23 03:28:05;;;;;;;4.03;0.70;;;7.10;99.90;;;6.32;91.25;97275.63;5075592;28;20395;-71
2021/05/23 03:30:37;;;;;;;4.57;0.70;;;7.10;99.90;;;6.28;91.53;97285.19;5076112;28;20119;-71
2021/05/23 03:33:06;;;;;;;5.20;0.70;;;7.10;99.90;;;6.15;91.81;97283.88;5081885;28;20105;-71
2021/05/23 03:35:34;;;;;;;5.32;0.82;;;7.10;99.90;;;6.14;91.87;97285.59;5078884;28;20056;-71
2021/05/23 03:38:02;;;;;;;2.58;0.80;;;7.20;99.90;;;6.28;91.26;97270.56;5071950;28;20049;-71
2021/05/23 03:40:31;;;;;;;4.25;0.80;;;7.20;99.90;;;6.29;91.19;97276.56;5077362;28;20085;-72
2021/05/23 03:42:58;;;;;;;1.02;0.47;;;7.20;99.90;;;6.26;90.82;97274.91;5069455;28;20040;-71
2021/05/23 03:45:26;;;;;;;7.57;0.85;;;7.10;99.90;;;6.26;90.80;97277.50;5076821;28;20073;-71
2021/05/23 03:47:53;;;;;;;5.38;0.90;;;7.10;99.90;;;6.22;90.58;97283.63;5078035;28;20044;-71
2021/05/23 03:50:22;;;;;;;3.85;1.00;;;7.10;99.90;;;6.29;90.73;97289.44;5070314;28;20118;-71
2021/05/23 03:52:54;;;;;;;4.13;0.70;;;7.00;99.90;;;6.23;90.67;97298.22;5081026;28;20419;-71
2021/05/23 03:55:22;;;;;;;2.05;0.77;;;7.10;99.90;;;6.39;91.02;97295.19;5081079;28;20041;-71
2021/05/23 03:57:54;;;;;;;3.75;0.70;;;7.20;99.90;;;6.26;91.01;97310.16;5085054;28;20056;-71
2021/05/23 04:00:23;;;;;;;2.80;0.75;;;7.20;99.90;;;6.35;91.63;97306.47;5074100;28;20040;-71
2021/05/23 04:02:53;;;;;;;1.63;0.60;;;7.30;99.90;;;6.40;89.99;97312.31;5073337;28;20476;-71
2021/05/23 04:05:26;;;;;;;6.13;0.85;;;7.30;99.90;;;6.42;89.62;97313.97;5081866;28;20047;-72
2021/05/23 04:07:54;;;;;;;9.38;0.90;;;7.30;99.90;;;6.47;89.41;97311.25;5081648;28;20044;-72
2021/05/23 04:10:25;;;;;;;4.18;0.75;;;7.30;99.90;;;6.49;89.47;97312.06;5082492;28;20065;-72
2021/05/23 04:12:59;;;;;;;4.32;0.60;;;7.30;99.90;;;6.46;89.79;97320.72;5086969;28;20092;-71
2021/05/23 04:15:27;;;;;;;3.00;0.90;;;7.30;99.90;;;6.31;90.14;97328.06;5102806;28;20101;-71
2021/05/23 04:17:54;;;;;;;4.28;0.60;;;7.40;99.90;;;6.52;90.65;97326.56;5078668;28;20047;-71
2021/05/23 04:20:23;;;;;;;4.95;0.80;;;7.40;99.90;;;6.61;89.73;97324.56;5088922;28;20048;-71
2021/05/23 04:22:51;;;;;;;3.40;0.70;;;7.40;99.90;;;6.63;89.29;97333.09;5073348;28;20454;-71
2021/05/23 04:25:19;;;;;;;4.20;0.80;;;7.50;99.90;;;6.73;88.54;97336.25;5083303;28;20330;-72
2021/05/23 04:27:49;;;;;;;5.88;0.77;;;7.40;99.90;;;6.79;88.05;97346.34;5085599;28;20040;-72
2021/05/23 04:30:20;;;;;;;3.03;0.65;;;7.40;99.90;;;6.54;89.18;97356.56;5062003;28;20082;-71
2021/05/23 04:32:48;;;;;;;4.93;1.08;;;7.50;99.90;;;6.62;89.00;97359.78;5069162;28;20037;-71
2021/05/23 04:35:16;;;;;;;5.78;0.70;;;7.50;99.90;;;6.45;89.99;97368.03;5067325;28;20090;-71
2021/05/23 04:37:45;;;;;;;2.50;0.95;;;7.60;99.90;;;6.57;89.94;97364.25;5070356;28;20048;-71
2021/05/23 04:40:15;;;;;;;8.73;1.27;;;7.60;99.90;;;6.63;89.90;97368.34;5068572;28;20040;-71
2021/05/23 04:42:43;;;;;;;3.63;0.82;;;7.60;99.90;;;6.46;89.54;97376.59;5054637;28;20467;-72
2021/05/23 04:45:30;;;;;;;5.53;0.70;;;7.50;99.90;;;6.40;90.72;97381.94;5077029;28;20464;-72
2021/05/23 04:47:58;;;;;;;2.47;0.60;;;7.60;99.90;;;6.52;90.35;97375.56;5073203;28;20036;-72
2021/05/23 04:50:25;;;;;;;2.83;0.50;;;7.60;99.90;;;6.60;89.75;97377.03;5076600;28;20045;-72
2021/05/23 04:52:52;;;;;;;4.70;0.82;;;7.50;99.90;;;6.32;90.78;97396.75;5071754;28;20047;-72
2021/05/23 04:55:19;;;;;;;1.73;0.60;;;7.60;99.90;;;6.42;89.89;97398.22;5081654;28;20450;-72
2021/05/23 04:57:46;;;;;;;2.38;0.70;;;7.60;99.90;;;6.50;89.92;97396.25;5082195;28;20114;-72
2021/05/23 05:00:13;;;;;;;2.00;0.70;;;7.60;99.90;;;6.43;89.25;97407.63;5078546;28;20036;-72
2021/05/23 05:02:41;;;;;;;3.50;0.75;;;7.60;99.90;;;6.53;89.54;97392.75;5071952;28;20499;-72
2021/05/23 05:05:13;;;;;;;1.52;0.63;;;7.60;99.90;;;6.57;89.13;97402.94;5073428;28;20115;-72
2021/05/23 05:07:42;;;;;;;3.30;0.75;;;7.50;99.90;;;6.47;89.73;97386.03;5084331;28;20459;-72
2021/05/23 05:10:10;;;;;;;3.70;0.60;;;7.50;99.90;;;6.68;89.39;97393.13;5086652;28;20150;-72
2021/05/23 05:12:38;;;;;;;5.80;0.80;;;7.60;99.90;;;6.64;89.40;97398.44;5086362;28;20353;-72
2021/05/23 05:15:07;;;;;;;3.72;0.80;;;7.60;99.90;;;6.62;89.10;97407.94;5084442;28;20396;-72
2021/05/23 05:17:35;;;;;;;7.55;1.17;;;7.60;99.90;;;6.81;89.12;97405.66;5070859;28;20048;-72
2021/05/23 05:20:05;;;;;;;5.43;0.90;;;7.60;99.90;;;6.58;89.65;97424.41;5072042;28;20056;-73
2021/05/23 05:22:32;;;;;;;5.25;1.20;;;7.70;99.90;;;6.63;89.34;97418.19;5088498;28;20482;-72
2021/05/23 05:24:58;;;;;;;3.92;1.05;;;7.70;99.90;;;6.66;89.16;97425.88;5089166;28;20048;-72
2021/05/23 05:27:26;;;;;;;3.47;0.88;;;7.70;99.90;;;6.71;89.27;97428.31;5068802;28;20059;-73
2021/05/23 05:29:54;;;;;;;2.95;1.00;;;7.70;99.90;;;6.52;90.44;97437.47;5069009;28;20044;-72
2021/05/23 05:32:21;;;;;;;5.95;1.30;;;7.80;99.90;;;6.65;90.04;97436.22;5068058;28;20104;-72
2021/05/23 05:34:48;;;;;;;3.50;0.88;;;7.70;99.90;;;6.66;89.98;97435.31;5068953;28;20060;-72
2021/05/23 05:37:15;;;;;;;7.47;1.40;;;7.80;99.90;;;6.63;90.47;97440.56;5067811;28;20416;-72
2021/05/23 05:39:43;;;;;;;5.22;1.00;;;7.80;99.90;;;6.78;89.54;97445.28;5068612;28;20484;-72
2021/05/23 05:42:09;;;;;;;2.92;0.90;;;7.80;99.90;;;6.81;89.39;97442.59;5081438;28;20040;-72
2021/05/23 05:44:36;;;;;;;6.20;1.10;;;7.90;99.90;;;6.93;89.09;97443.13;5068568;28;20285;-72
2021/05/23 05:47:03;;;;;;;5.85;1.02;;;7.80;99.90;;;6.99;88.63;97445.53;5069060;28;20041;-72
2021/05/23 05:49:30;;;;;;;4.57;1.13;;;7.90;99.90;;;7.12;88.19;97439.94;5070226;28;20072;-72
2021/05/23 05:51:57;;;;;;;2.22;0.82;;;7.90;99.90;;;7.12;88.45;97439.94;5080529;28;20037;-72
2021/05/23 05:54:24;;;;;;;5.93;0.80;;;7.90;99.90;;;7.06;88.91;97442.72;5088425;28;20097;-72
2021/05/23 05:56:51;;;;;;;3.25;0.70;;;8.00;99.90;;;7.15;87.88;97441.59;5087467;28;20105;-72
2021/05/23 05:59:38;;;;;;;3.17;0.90;;;8.10;99.90;;;7.03;88.40;97453.13;5083019;28;20083;-72
2021/05/23 06:02:06;;;;;;;5.65;0.95;;;8.30;99.90;;;7.09;88.86;97432.31;5075313;28;20249;-72
2021/05/23 06:04:33;;;;;;;5.57;1.00;;;8.40;99.90;;;7.07;87.90;97453.88;5072548;28;20566;-72
2021/05/23 06:07:00;;;;;;;6.72;1.17;;;8.50;99.90;;;7.45;87.60;97439.78;5089432;28;20052;-72
2021/05/23 06:09:27;;;;;;;4.70;1.08;;;8.60;99.90;;;7.50;86.68;97462.88;5078573;28;20515;-72
2021/05/23 06:11:54;;;;;;;2.28;0.63;;;8.60;99.90;;;7.29;87.92;97459.22;5079209;28;20066;-72
2021/05/23 06:14:21;;;;;;;5.80;1.02;;;8.60;99.90;;;7.17;88.30;97470.78;5072199;28;20501;-72
2021/05/23 06:16:52;;;;;;;3.72;1.10;;;8.60;99.90;;;7.35;87.13;97466.78;5073971;28;20048;-72
2021/05/23 06:19:19;;;;;;;6.68;1.00;;;8.70;99.90;;;7.41;87.37;97469.19;5072755;28;20496;-73
2021/05/23 06:21:46;;;;;;;4.05;1.30;;;8.70;99.90;;;7.79;86.61;97463.66;5072116;28;20037;-72
2021/05/23 06:24:13;;;;;;;5.20;1.33;;;8.80;99.90;;;7.33;86.74;97478.91;5074931;28;20111;-72
2021/05/23 06:26:40;;;;;;;4.38;1.20;;;8.80;99.90;;;7.62;86.81;97471.94;5077080;28;20055;-72
2021/05/23 06:29:07;;;;;;;3.47;1.05;;;8.70;99.90;;;7.38;86.41;97477.00;5091970;28;20035;-72
2021/05/23 06:31:34;;;;;;;2.83;1.13;;;8.80;99.90;;;7.73;85.58;97472.44;5092317;28;20143;-72
2021/05/23 06:34:01;;;;;;;5.38;1.50;;;9.00;99.90;;;7.82;86.39;97473.88;5085503;28;20084;-72
2021/05/23 06:36:28;;;;;;;6.47;0.90;;;9.10;99.90;;;7.67;85.47;97476.09;5072405;28;20060;-72
2021/05/23 06:38:54;;;;;;;3.88;0.90;;;9.20;99.90;;;7.30;86.26;97489.34;5083342;28;20127;-72
2021/05/23 06:41:22;;;;;;;5.93;1.65;;;9.20;99.90;;;7.47;86.04;97479.31;5075015;28;20114;-72
2021/05/23 06:43:49;;;;;;;6.32;1.10;;;9.10;99.90;;;7.54;86.71;97501.47;5080101;28;20438;-72
2021/05/23 06:46:16;;;;;;;3.38;0.93;;;9.00;99.90;;;7.90;85.34;97485.66;5087224;28;20041;-72
2021/05/23 06:48:43;;;;;;;6.82;1.25;;;9.00;99.90;;;7.47;85.96;97499.13;5071486;28;20059;-72
2021/05/23 06:51:10;;;;;;;4.70;1.30;;;9.00;99.90;;;7.59;86.69;97496.16;5083945;28;20135;-72
2021/05/23 06:53:37;;;;;;;5.53;1.20;;;9.00;99.90;;;7.62;86.30;97500.38;5085732;28;20117;-72
2021/05/23 06:56:05;;;;;;;7.20;1.40;;;9.10;99.90;;;8.21;85.76;97482.06;5075355;28;20049;-72
2021/05/23 06:58:32;;;;;;;7.05;1.30;;;9.20;99.90;;;8.24;83.35;97483.69;5085426;28;20040;-72
2021/05/23 07:01:00;;;;;;;2.67;1.10;;;9.30;99.90;;;8.15;82.71;97498.59;5089700;28;20044;-72
2021/05/23 07:03:27;;;;;;;6.53;1.30;;;9.30;99.90;;;8.33;83.10;97501.47;5090864;28;20113;-72
2021/05/23 07:05:54;;;;;;;7.63;2.38;;;9.30;99.90;;;8.03;84.37;97506.78;5081604;28;20037;-71
2021/05/23 07:08:21;;;;;;;3.50;1.20;;;9.30;99.90;;;8.07;84.95;97507.50;5095196;28;20487;-72
2021/05/23 07:10:47;;;;;;;2.42;1.20;;;9.30;99.90;;;8.12;84.39;97496.13;5082051;28;20044;-72
2021/05/23 07:13:15;;;;;;;5.28;1.02;;;9.00;99.90;;;7.94;85.01;97512.25;5092455;28;20131;-71
2021/05/23 07:15:42;;;;;;;4.30;1.23;;;9.10;99.90;;;7.95;85.40;97511.34;5090556;28;20044;-71
2021/05/23 07:18:09;;;;;;;3.95;1.15;;;9.10;99.90;;;8.15;84.99;97521.03;5080351;28;20041;-71
2021/05/23 07:20:36;;;;;;;3.97;1.05;;;9.10;99.90;;;8.14;84.54;97516.75;5085546;28;20044;-72
2021/05/23 07:23:03;;;;;;;6.47;1.58;;;9.10;99.90;;;7.79;86.90;97516.19;5072415;28;20041;-72
2021/05/23 07:25:30;;;;;;;4.80;1.20;;;9.10;99.90;;;7.95;85.74;97526.88;5085466;28;20044;-72
2021/05/23 07:27:57;;;;;;;4.85;1.02;;;9.20;99.90;;;8.10;85.83;97521.19;5088816;28;20049;-72
2021/05/23 07:30:24;;;;;;;6.35;1.83;;;9.10;99.90;;;7.92;85.58;97539.91;5071577;28;20093;-72
2021/05/23 07:32:52;;;;;;;6.40;1.48;;;9.00;99.90;;;7.82;87.21;97541.06;5071771;28;20374;-72
2021/05/23 07:35:19;;;;;;;6.43;1.48;;;9.10;99.90;;;8.04;86.52;97548.97;5091091;28;20051;-73
2021/05/23 07:37:46;;;;;;;4.43;1.42;;;9.20;99.90;;;8.08;89.05;97529.91;5085986;28;20044;-73
2021/05/23 07:40:14;;;;;;;2.88;0.90;;;9.30;99.90;;;8.24;84.81;97541.41;5080763;28;20047;-73
2021/05/23 07:42:42;;;;;;;6.75;1.25;;;9.30;99.90;;;8.41;85.90;97527.91;5086785;28;20032;-73
2021/05/23 07:45:11;;;;;;;2.45;0.82;;;9.60;99.90;;;9.03;83.25;97529.16;5075535;28;20131;-73
2021/05/23 07:47:39;;;;;;;2.97;0.90;;;10.00;99.90;;;8.90;82.74;97527.94;5070163;28;20119;-72
2021/05/23 07:50:08;;;;;;;1.98;0.60;;;9.90;99.90;;;8.96;82.65;97520.78;5069644;28;20098;-72
2021/05/23 07:52:36;;;;;;;4.57;1.08;;;9.90;99.90;;;8.57;84.43;97525.63;5068513;28;20048;-74
2021/05/23 07:55:05;;;;;;;2.83;0.70;;;9.80;99.90;;;8.42;84.66;97552.06;5070657;28;20052;-73
2021/05/23 07:57:33;;;;;;;5.07;2.15;;;9.70;99.90;;;8.58;86.64;97540.28;5068971;28;20110;-73
2021/05/23 08:00:00;;;;;;;3.25;0.90;;;9.90;99.90;;;9.15;85.13;97539.06;5082233;28;20056;-73
2021/05/23 08:02:28;;;;;;;2.75;0.90;;;10.00;99.90;;;8.51;84.00;97549.16;5071592;28;20044;-73
2021/05/23 08:04:55;;;;;;;3.95;1.00;;;10.10;99.90;;;8.62;85.34;97554.81;5075490;28;20070;-73
2021/05/23 08:07:23;;;;;;;8.45;1.50;;;10.20;99.90;;;9.08;81.51;97555.72;5090950;28;20048;-73
2021/05/23 08:09:50;;;;;;;21.70;9.35;;;10.30;99.90;;;8.95;83.83;97552.75;5074561;28;20097;-73
2021/05/23 08:12:18;;;;;;;2.88;0.47;;;10.90;99.90;;;9.62;79.95;97539.00;5072017;28;20109;-72
2021/05/23 08:14:45;;;;;;;4.25;0.68;;;10.70;99.90;;;9.47;79.50;97536.16;5076510;28;20378;-73
2021/05/23 08:17:13;;;;;;;5.40;1.40;;;10.70;99.90;;;9.83;79.87;97541.66;5077268;28;20085;-73
2021/05/23 08:19:40;;;;;;;17.70;6.20;;;10.90;99.90;;;9.05;80.77;97558.41;5064560;28;20041;-72
2021/05/23 08:22:07;;;;;;;5.55;1.25;;;11.00;99.90;;;9.15;80.65;97549.44;5070172;28;20051;-73
2021/05/23 08:24:34;;;;;;;4.85;0.73;;;11.00;99.90;;;9.81;80.86;97549.47;5068676;28;20036;-73
2021/05/23 08:27:02;;;;;;;2.08;0.80;;;11.00;99.90;;;9.40;81.16;97554.53;5084699;28;20157;-74
2021/05/23 08:29:30;;;;;;;7.78;0.80;;;10.90;99.90;;;9.51;80.96;97550.66;5070536;28;20334;-72
2021/05/23 08:31:59;;;;;;;5.80;0.98;;;10.90;99.90;;;9.96;79.83;97557.53;5069014;28;20048;-73
2021/05/23 08:34:27;;;;;;;5.05;1.00;;;11.40;99.90;;;10.77;77.58;97556.75;5069410;28;20044;-73
2021/05/23 08:36:55;;;;;;;3.70;0.70;;;11.90;99.90;;;10.10;75.84;97562.16;5072885;28;20528;-73
2021/05/23 08:39:22;;;;;;;16.52;7.75;;;12.30;99.90;;;10.23;75.26;97560.75;5070725;28;20151;-73
2021/05/23 08:41:52;;;;;;;9.68;1.70;;;12.80;99.90;;;10.67;77.30;97558.03;5090309;28;20048;-72
2021/05/23 08:44:23;;;;;;;25.63;11.75;;;12.80;99.90;;;10.42;75.54;97560.84;5090503;28;20480;-73
2021/05/23 08:46:53;;;;;;;2.10;0.50;;;13.10;99.90;;;10.77;74.39;97550.72;5078671;28;20048;-72
2021/05/23 08:49:23;;;;;;;6.78;2.40;;;12.80;99.90;;;10.80;73.64;97572.19;5072138;28;20432;-73
2021/05/23 08:51:52;;;;;;;4.38;0.68;;;12.60;99.90;;;10.95;72.12;97562.88;5075598;28;20051;-73
2021/05/23 08:54:19;;;;;;;13.63;5.68;;;12.70;99.90;;;10.08;76.02;97559.66;5069123;28;20052;-72
2021/05/23 08:56:50;;;;;;;8.73;2.05;;;12.60;99.90;;;10.50;74.44;97563.97;5075725;28;20052;-72
2021/05/23 08:59:19;;;;;;;7.05;2.22;;;12.30;99.90;;;10.42;73.82;97561.72;5074139;28;20040;-72
2021/05/23 09:01:48;;;;;;;3.65;0.90;;;12.30;99.90;;;10.85;72.85;97565.03;5080692;28;20082;-72
2021/05/23 09:04:18;;;;;;;3.53;0.82;;;12.40;99.90;;;10.85;71.74;97557.25;5074966;28;20102;-72
2021/05/23 09:06:46;;;;;;;6.57;2.17;;;12.10;99.90;;;10.34;74.96;97570.72;5076172;28;20102;-72
2021/05/23 09:09:15;;;;;;;5.43;0.77;;;12.10;99.90;;;10.60;72.96;97573.03;5077859;28;20143;-72
2021/05/23 09:12:01;;;;;;;5.13;1.88;;;12.00;99.90;;;9.88;75.14;97568.22;5083603;28;20101;-72
2021/05/23 09:14:37;;;;;;;4.13;0.80;;;12.00;99.90;;;10.02;73.53;97558.13;5075437;28;20094;-73
2021/05/23 09:17:05;;;;;;;2.40;0.80;;;11.70;99.90;;;9.57;74.79;97586.72;5079267;28;20485;-72
2021/05/23 09:19:41;;;;;;;6.97;1.50;;;11.40;99.90;;;9.80;75.75;97589.25;5080083;28;20089;-72
2021/05/23 09:22:13;;;;;;;7.90;0.70;;;11.60;99.90;;;10.40;74.14;97594.66;5068944;28;20409;-72
2021/05/23 09:25:09;;;;;;;3.85;1.20;;;11.80;99.90;;;10.00;75.89;97585.88;5063112;28;20615;-72
2021/05/23 09:27:43;;;;;;;6.05;0.70;;;12.10;99.90;;;10.57;73.11;97583.56;5084307;28;20039;-71
2021/05/23 09:30:18;;;;;;;4.75;0.77;;;12.30;99.90;;;10.88;72.56;97595.25;5083334;28;20087;-72
2021/05/23 09:32:46;;;;;;;2.30;0.47;;;12.20;99.90;;;9.97;75.19;97588.59;5071737;28;20202;-72
2021/05/23 09:35:16;;;;;;;5.40;1.00;;;11.90;99.90;;;10.34;74.50;97583.69;5076491;28;20045;-72
2021/05/23 09:37:44;;;;;;;5.72;0.70;;;11.90;99.90;;;10.72;73.90;97591.59;5074772;28;20519;-71
2021/05/23 09:40:21;;;;;;;4.97;0.70;;;12.20;99.90;;;11.23;70.04;97590.22;5084401;28;20077;-72
2021/05/23 09:42:52;;;;;;;3.38;0.60;;;12.20;99.90;;;10.55;73.20;97585.38;5079397;28;20097;-72
2021/05/23 09:45:22;;;;;;;5.53;0.70;;;12.40;99.90;;;11.83;66.48;97593.50;5089387;28;20499;-73
2021/05/23 09:47:57;;;;;;;5.00;0.70;;;12.90;99.90;;;13.44;63.82;97565.50;5075942;28;20040;-72
2021/05/23 09:50:44;;;;;;;4.85;0.60;;;14.20;99.90;;;12.48;64.67;97587.81;5077799;28;20040;-72
2021/05/23 09:53:31;;;;;;;5.00;0.75;;;15.30;99.90;;;12.50;63.54;97572.97;5086093;28;20054;-72
2021/05/23 09:55:58;;;;;;;3.95;0.75;;;15.00;99.90;;;11.48;68.11;97579.56;5073396;28;20120;-71
2021/05/23 09:58:33;;;;;;;5.60;1.00;;;14.20;99.90;;;11.44;66.91;97584.03;5073025;28;20519;-73
2021/05/23 10:01:00;;;;;;;3.05;0.60;;;13.30;99.90;;;10.89;68.97;97594.31;5082834;28;20434;-73
2021/05/23 10:03:30;;;;;;;4.10;0.60;;;12.90;99.90;;;10.66;70.03;97587.53;5085703;28;20059;-73
2021/05/23 10:06:00;;;;;;;3.75;0.63;;;12.70;99.90;;;10.68;70.22;97596.94;5055664;28;20500;-74
2021/05/23 10:08:29;;;;;;;2.88;0.70;;;12.30;99.90;;;10.46;70.46;97591.78;5074116;28;20488;-73
2021/05/23 10:10:57;;;;;;;1.75;0.60;;;12.20;99.90;;;10.77;69.84;97610.44;5075644;28;20048;-73
2021/05/23 10:13:25;;;;;;;3.58;0.65;;;12.10;99.90;;;10.44;70.77;97624.75;5073828;28;20044;-73
2021/05/23 10:15:53;;;;;;;4.50;0.80;;;12.30;99.90;;;10.50;71.27;97600.31;5076227;28;20058;-73
2021/05/23 10:18:25;;;;;;;3.00;0.60;;;12.40;99.90;;;11.07;72.96;97588.31;5078617;28;20036;-72
2021/05/23 10:20:58;;;;;;;6.63;0.70;;;12.30;99.90;;;11.34;70.29;97602.75;5072319;28;20045;-72
2021/05/23 10:23:32;;;;;;;3.08;0.70;;;12.60;99.90;;;12.09;68.03;97584.50;5071474;28;20079;-73
2021/05/23 10:26:02;;;;;;;3.95;0.60;;;13.40;99.90;;;11.96;65.36;97601.59;5085441;28;20040;-73
2021/05/23 10:28:30;;;;;;;2.85;0.60;;;14.40;99.90;;;12.88;65.93;97593.59;5082911;28;20043;-74
2021/05/23 10:31:13;;;;;;;2.92;0.50;;;15.20;99.90;;;12.48;65.71;97590.41;5090467;28;20051;-73
2021/05/23 10:33:51;;;;;;;4.07;0.60;;;15.50;99.90;;;12.38;63.22;97603.03;5077150;28;20125;-72
2021/05/23 10:36:37;;;;;;;4.75;0.70;;;15.00;99.90;;;12.05;63.12;97623.75;5079939;28;20032;-73
2021/05/23 10:39:12;;;;;;;5.43;0.68;;;14.60;99.90;;;11.66;64.93;97619.47;5073220;28;20048;-74